Time;durP1;ratioP1;P1;durP2;ratioP2;P2;SDS_P1;SDS_P2;PMS_P1;PMS_P2;Temp;Humidity;BMP_temperature;BMP_pressure;BME280_temperature;BME280_humidity;BME280_pressure;Samples;Min_cycle;Max_cycle;Signal;HPM_P1;HPM_P2
2022/04/07 00:00:06;;;;;;;3.90;1.33;;;;;;;7.68;100.00;94787.69;5103832;27;20027;-77
2022/04/07 00:02:31;;;;;;;3.60;1.73;;;;;;;7.67;100.00;94778.19;5106854;27;20028;-77
2022/04/07 00:04:57;;;;;;;2.30;1.30;;;;;;;7.67;100.00;94770.34;5108389;27;20040;-77
2022/04/07 00:07:23;;;;;;;2.27;1.30;;;;;;;7.68;100.00;94777.22;5115084;27;20027;-77
2022/04/07 00:09:48;;;;;;;3.43;1.80;;;;;;;7.67;100.00;94772.97;5096101;28;20038;-77
2022/04/07 00:12:14;;;;;;;4.10;1.87;;;;;;;7.70;100.00;94777.84;5093054;27;20023;-77
2022/04/07 00:14:40;;;;;;;2.60;1.37;;;;;;;7.68;100.00;94774.63;5108122;27;20046;-77
2022/04/07 00:17:06;;;;;;;2.50;1.50;;;;;;;7.64;100.00;94772.50;5109300;27;20059;-77
2022/04/07 00:19:31;;;;;;;4.23;1.70;;;;;;;7.62;100.00;94777.13;5106065;27;20028;-77
2022/04/07 00:21:59;;;;;;;3.83;1.80;;;;;;;7.56;100.00;94782.06;5113295;27;20507;-77
2022/04/07 00:24:25;;;;;;;3.07;1.83;;;;;;;7.54;100.00;94785.81;5106091;27;20544;-77
2022/04/07 00:26:51;;;;;;;5.37;1.63;;;;;;;7.52;100.00;94774.75;5114112;27;20027;-76
2022/04/07 00:29:17;;;;;;;2.50;1.67;;;;;;;7.49;100.00;94778.53;5105175;27;20051;-78
2022/04/07 00:31:44;;;;;;;3.17;1.80;;;;;;;7.50;100.00;94774.91;5111229;27;20035;-77
2022/04/07 00:34:10;;;;;;;2.70;1.43;;;;;;;7.48;100.00;94765.63;5104389;28;20031;-76
2022/04/07 00:36:36;;;;;;;2.93;1.50;;;;;;;7.39;100.00;94767.47;5116046;27;20031;-76
2022/04/07 00:39:03;;;;;;;2.07;1.23;;;;;;;7.42;100.00;94763.72;5117212;27;20035;-76
2022/04/07 00:41:29;;;;;;;3.57;1.87;;;;;;;7.42;100.00;94761.91;5103160;27;20028;-77
2022/04/07 00:43:55;;;;;;;4.30;1.70;;;;;;;7.38;100.00;94754.56;5102947;27;20024;-76
2022/04/07 00:46:21;;;;;;;3.43;1.60;;;;;;;7.35;100.00;94760.97;5110340;27;20023;-77
2022/04/07 00:48:47;;;;;;;2.80;1.40;;;;;;;7.33;100.00;94762.94;5103415;27;20713;-77
2022/04/07 00:51:12;;;;;;;3.40;1.70;;;;;;;7.25;100.00;94760.41;5113911;27;20039;-77
2022/04/07 00:53:39;;;;;;;16.93;2.63;;;;;;;7.19;100.00;94763.72;5108763;27;20024;-77
2022/04/07 00:56:07;;;;;;;2.67;1.47;;;;;;;7.16;100.00;94766.69;5109485;27;20028;-77
2022/04/07 00:58:33;;;;;;;2.60;1.40;;;;;;;7.18;100.00;94752.44;5109805;27;20035;-77
2022/04/07 01:00:59;;;;;;;2.63;1.37;;;;;;;7.15;100.00;94758.03;5105805;27;20099;-77
2022/04/07 01:03:25;;;;;;;2.63;1.70;;;;;;;7.17;100.00;94753.41;5118253;27;20050;-77
2022/04/07 01:05:51;;;;;;;2.80;1.40;;;;;;;7.15;100.00;94758.03;5109559;27;20719;-77
2022/04/07 01:08:17;;;;;;;3.33;1.37;;;;;;;7.18;100.00;94749.84;5100924;27;20069;-77
2022/04/07 01:10:45;;;;;;;2.17;1.33;;;;;;;7.16;100.00;94740.53;5092177;28;20135;-77
2022/04/07 01:13:12;;;;;;;2.00;1.27;;;;;;;7.07;100.00;94745.81;5110045;27;20027;-76
2022/04/07 01:15:38;;;;;;;2.00;1.10;;;;;;;7.08;100.00;94730.97;5116125;27;20023;-79
2022/04/07 01:18:04;;;;;;;2.27;1.33;;;;;;;7.08;100.00;94736.19;5112019;27;20122;-77
2022/04/07 01:20:30;;;;;;;2.97;1.23;;;;;;;7.03;100.00;94743.72;5119713;28;20601;-77
2022/04/07 01:22:57;;;;;;;2.43;1.60;;;;;;;7.05;100.00;94742.56;5118740;28;20110;-77
2022/04/07 01:25:27;;;;;;;3.27;1.27;;;;;;;7.00;100.00;94746.69;5108970;28;20090;-77
2022/04/07 01:27:54;;;;;;;1.50;1.00;;;;;;;7.09;100.00;94737.81;5107374;28;20106;-77
2022/04/07 01:30:21;;;;;;;2.53;1.23;;;;;;;7.07;100.00;94739.75;5105917;28;20038;-76
2022/04/07 01:32:54;;;;;;;5.27;2.00;;;;;;;7.15;100.00;94731.88;5104260;28;21013;-77
2022/04/07 01:35:22;;;;;;;1.55;0.90;;;;;;;7.20;100.00;94734.78;5111689;28;20107;-77
2022/04/07 01:37:49;;;;;;;1.87;1.00;;;;;;;7.18;100.00;94720.28;5108170;28;20039;-79
2022/04/07 01:40:17;;;;;;;2.03;0.80;;;;;;;7.15;100.00;94724.03;5104743;28;20042;-77
2022/04/07 01:42:47;;;;;;;1.63;0.90;;;;;;;7.09;100.00;94714.28;5104295;28;20495;-77
2022/04/07 01:45:14;;;;;;;1.57;1.10;;;;;;;7.13;100.00;94715.53;5100572;28;20036;-77
2022/04/07 01:47:41;;;;;;;1.67;1.10;;;;;;;7.16;100.00;94712.59;5106163;28;20451;-77
2022/04/07 01:50:09;;;;;;;3.10;1.20;;;;;;;7.11;100.00;94712.31;5100030;28;20458;-77
2022/04/07 01:52:39;;;;;;;1.87;1.10;;;;;;;7.14;100.00;94711.13;5091991;28;20154;-77
2022/04/07 01:55:06;;;;;;;2.10;0.93;;;;;;;7.18;100.00;94721.06;5094599;28;20036;-77
2022/04/07 01:57:33;;;;;;;2.50;1.13;;;;;;;7.20;100.00;94715.66;5088915;28;20020;-77
2022/04/07 02:00:00;;;;;;;2.53;1.17;;;;;;;7.14;100.00;94706.72;5115235;28;20030;-77
2022/04/07 02:02:26;;;;;;;1.53;0.80;;;;;;;7.12;100.00;94692.22;5114382;28;20084;-76
2022/04/07 02:04:52;;;;;;;1.13;0.80;;;;;;;7.14;100.00;94692.81;5113336;28;20396;-77
2022/04/07 02:07:18;;;;;;;1.53;0.90;;;;;;;7.12;100.00;94685.19;5108906;28;20035;-77
2022/04/07 02:09:43;;;;;;;1.83;0.77;;;;;;;7.04;100.00;94690.44;5118090;28;20020;-77
2022/04/07 02:12:10;;;;;;;1.87;1.00;;;;;;;6.96;100.00;94682.69;5113559;28;20114;-76
2022/04/07 02:14:36;;;;;;;2.00;1.10;;;;;;;6.98;100.00;94688.56;5091307;28;20032;-77
2022/04/07 02:17:02;;;;;;;2.33;1.20;;;;;;;6.96;100.00;94687.91;5120474;28;20008;-76
2022/04/07 02:19:29;;;;;;;1.50;0.90;;;;;;;6.93;100.00;94686.44;5115337;27;20029;-77
2022/04/07 02:21:54;;;;;;;3.17;1.33;;;;;;;6.96;100.00;94693.94;5112677;27;20039;-78
2022/04/07 02:24:20;;;;;;;1.43;1.10;;;;;;;6.94;100.00;94674.19;5101983;27;20035;-77
2022/04/07 02:26:46;;;;;;;2.37;1.30;;;;;;;6.92;100.00;94686.63;5108450;27;20063;-77
2022/04/07 02:29:12;;;;;;;2.77;1.10;;;;;;;6.82;100.00;94687.69;5105579;28;20023;-77
2022/04/07 02:31:37;;;;;;;2.37;1.20;;;;;;;6.75;100.00;94681.53;5116833;27;20035;-77
2022/04/07 02:34:03;;;;;;;3.27;1.27;;;;;;;6.73;100.00;94688.72;5104192;27;20067;-76
2022/04/07 02:36:29;;;;;;;2.13;1.17;;;;;;;6.70;100.00;94690.84;5109555;27;20024;-77
2022/04/07 02:38:54;;;;;;;2.63;1.00;;;;;;;6.67;100.00;94696.44;5117094;27;20026;-77
2022/04/07 02:41:20;;;;;;;3.40;1.50;;;;;;;6.63;100.00;94701.19;5109113;27;20120;-77
2022/04/07 02:43:48;;;;;;;2.73;1.20;;;;;;;6.69;100.00;94694.47;5115057;27;20476;-77
2022/04/07 02:46:14;;;;;;;2.90;1.53;;;;;;;6.68;100.00;94698.88;5106065;27;20032;-77
2022/04/07 02:48:40;;;;;;;2.03;1.20;;;;;;;6.74;100.00;94702.59;5116390;27;20679;-77
2022/04/07 02:51:06;;;;;;;2.67;1.20;;;;;;;6.76;100.00;94706.66;5103752;27;20032;-77
2022/04/07 02:53:31;;;;;;;2.23;1.20;;;;;;;6.85;100.00;94689.94;5120380;27;20034;-77
2022/04/07 02:55:57;;;;;;;1.90;1.00;;;;;;;6.89;100.00;94694.81;5113280;27;20024;-77
2022/04/07 02:58:23;;;;;;;2.53;0.93;;;;;;;6.91;100.00;94685.00;5109999;27;20396;-76
2022/04/07 03:00:48;;;;;;;2.80;1.00;;;;;;;6.90;100.00;94681.56;5115581;27;20035;-77
2022/04/07 03:03:14;;;;;;;1.07;0.77;;;;;;;6.93;100.00;94673.38;5124538;27;20038;-77
2022/04/07 03:05:40;;;;;;;3.57;1.20;;;;;;;6.92;100.00;94670.97;5114097;27;20503;-76
2022/04/07 03:08:06;;;;;;;1.67;0.93;;;;;;;6.89;100.00;94671.31;5116270;27;20044;-77
2022/04/07 03:10:31;;;;;;;3.07;1.70;;;;;;;6.94;100.00;94663.75;5091094;28;20028;-77
2022/04/07 03:12:57;;;;;;;3.77;2.10;;;;;;;6.88;100.00;94659.25;5098100;27;20571;-77
2022/04/07 03:15:23;;;;;;;1.90;1.10;;;;;;;6.87;100.00;94660.22;5114800;27;20039;-76
2022/04/07 03:17:49;;;;;;;3.50;1.00;;;;;;;6.87;100.00;94653.19;5088631;28;20030;-77
2022/04/07 03:20:14;;;;;;;1.53;0.80;;;;;;;6.85;100.00;94649.94;5109588;27;20035;-77
2022/04/07 03:22:40;;;;;;;2.40;1.00;;;;;;;6.88;100.00;94646.16;5109075;27;20032;-76
2022/04/07 03:25:07;;;;;;;1.53;0.80;;;;;;;6.98;100.00;94646.75;5111009;27;20720;-77
2022/04/07 03:27:33;;;;;;;2.00;0.77;;;;;;;6.94;100.00;94632.38;5109471;27;20036;-77
2022/04/07 03:29:59;;;;;;;2.00;0.93;;;;;;;6.97;100.00;94635.44;5115254;27;20031;-76
2022/04/07 03:32:25;;;;;;;1.30;0.87;;;;;;;6.99;100.00;94645.75;5112963;27;20730;-76
2022/04/07 03:34:50;;;;;;;3.20;0.70;;;;;;;7.03;100.00;94644.41;5103398;27;20081;-77
2022/04/07 03:37:17;;;;;;;2.10;1.10;;;;;;;7.13;100.00;94649.38;5102728;28;20487;-77
2022/04/07 03:39:43;;;;;;;1.63;0.50;;;;;;;7.11;100.00;94646.97;5119170;27;20434;-76
2022/04/07 03:42:09;;;;;;;1.40;0.70;;;;;;;7.15;100.00;94640.38;5107229;27;20093;-77
2022/04/07 03:44:35;;;;;;;1.53;0.63;;;;;;;7.16;100.00;94641.19;5086934;28;20744;-77
2022/04/07 03:47:00;;;;;;;1.07;0.60;;;;;;;7.08;100.00;94642.09;5107154;27;20027;-77
2022/04/07 03:49:26;;;;;;;1.83;0.73;;;;;;;7.13;100.00;94641.53;5121379;27;20035;-77
2022/04/07 03:51:52;;;;;;;2.93;0.63;;;;;;;7.13;100.00;94649.38;5101295;27;20069;-77
2022/04/07 03:54:18;;;;;;;2.50;0.90;;;;;;;7.09;100.00;94648.94;5117308;27;20039;-77
2022/04/07 03:56:45;;;;;;;2.03;1.10;;;;;;;7.06;100.00;94646.66;5104008;27;20051;-77
2022/04/07 03:59:11;;;;;;;1.33;0.70;;;;;;;7.09;100.00;94636.66;5100780;28;20457;-77
2022/04/07 04:01:39;;;;;;;1.40;0.80;;;;;;;7.11;100.00;94639.13;5103726;28;20035;-77
2022/04/07 04:04:05;;;;;;;0.80;0.50;;;;;;;7.03;100.00;94639.97;5107932;27;20351;-77
2022/04/07 04:06:32;;;;;;;2.80;0.67;;;;;;;7.12;100.00;94632.88;5103379;27;20444;-77
2022/04/07 04:08:58;;;;;;;1.90;0.90;;;;;;;7.13;100.00;94631.91;5118569;27;20051;-77
2022/04/07 04:11:23;;;;;;;1.77;0.60;;;;;;;7.08;100.00;94621.97;5113623;27;20527;-77
2022/04/07 04:13:49;;;;;;;1.00;0.60;;;;;;;7.17;100.00;94620.09;5102711;27;20426;-77
2022/04/07 04:16:17;;;;;;;2.03;0.47;;;;;;;7.30;100.00;94615.06;5112484;27;20031;-77
2022/04/07 04:18:43;;;;;;;1.60;0.63;;;;;;;7.32;100.00;94620.13;5107496;27;20092;-77
2022/04/07 04:21:09;;;;;;;0.83;0.60;;;;;;;7.31;100.00;94616.69;5098676;27;20043;-77
2022/04/07 04:23:35;;;;;;;2.03;0.50;;;;;;;7.30;100.00;94611.63;5098040;27;20484;-77
2022/04/07 04:26:01;;;;;;;1.60;0.60;;;;;;;7.28;100.00;94613.63;5112420;27;20031;-77
2022/04/07 04:28:27;;;;;;;1.23;0.50;;;;;;;7.26;100.00;94605.94;5109010;27;20029;-77
2022/04/07 04:30:54;;;;;;;1.17;0.40;;;;;;;7.25;100.00;94606.94;5111217;27;20058;-77
2022/04/07 04:33:20;;;;;;;1.30;0.40;;;;;;;7.27;100.00;94618.03;5087683;28;20027;-76
2022/04/07 04:35:46;;;;;;;0.73;0.53;;;;;;;7.21;100.00;94616.16;5106480;27;20085;-77
2022/04/07 04:38:11;;;;;;;1.33;0.53;;;;;;;7.17;100.00;94616.66;5109383;27;20020;-77
2022/04/07 04:40:37;;;;;;;0.97;0.50;;;;;;;7.16;100.00;94621.09;5109597;27;20254;-77
2022/04/07 04:43:03;;;;;;;2.17;1.30;;;;;;;7.12;100.00;94606.75;5109919;27;20073;-76
2022/04/07 04:45:28;;;;;;;0.60;0.30;;;;;;;7.11;100.00;94602.53;5111936;27;20027;-77
2022/04/07 04:47:54;;;;;;;1.87;0.60;;;;;;;7.09;100.00;94594.84;5102405;27;20028;-77
2022/04/07 04:50:20;;;;;;;1.80;0.63;;;;;;;7.18;100.00;94586.94;5103190;28;20085;-76
2022/04/07 04:52:46;;;;;;;0.87;0.63;;;;;;;7.19;100.00;94578.91;5101706;28;20043;-76
2022/04/07 04:55:11;;;;;;;1.30;0.73;;;;;;;7.20;100.00;94580.50;5105791;27;20055;-76
2022/04/07 04:57:37;;;;;;;3.17;1.40;;;;;;;7.18;100.00;94582.50;5094829;27;20089;-76
2022/04/07 05:00:04;;;;;;;2.37;1.00;;;;;;;7.24;100.00;94587.03;5111061;27;20059;-76
2022/04/07 05:02:30;;;;;;;1.20;0.87;;;;;;;7.24;100.00;94581.81;5121111;27;20644;-76
2022/04/07 05:04:57;;;;;;;0.93;0.40;;;;;;;7.38;100.00;94576.72;5100540;28;20059;-76
2022/04/07 05:07:22;;;;;;;1.27;0.60;;;;;;;7.43;100.00;94584.88;5108972;27;20028;-76
2022/04/07 05:09:48;;;;;;;0.27;0.20;;;;;;;7.49;100.00;94579.72;5104642;27;20611;-77
2022/04/07 05:12:13;;;;;;;0.50;0.40;;;;;;;7.56;100.00;94585.03;5084121;28;20035;-77
2022/04/07 05:14:39;;;;;;;3.20;0.60;;;;;;;7.72;100.00;94579.63;5091840;28;20035;-77
2022/04/07 05:17:05;;;;;;;1.07;0.50;;;;;;;7.65;100.00;94581.34;5110799;28;20476;-76
2022/04/07 05:19:30;;;;;;;0.90;0.50;;;;;;;7.70;100.00;94589.44;5110900;27;20369;-76
2022/04/07 05:21:56;;;;;;;1.50;0.50;;;;;;;7.64;100.00;94597.22;5114236;27;20500;-76
2022/04/07 05:24:22;;;;;;;1.43;0.50;;;;;;;7.68;100.00;94593.25;5106861;28;20040;-76
2022/04/07 05:26:47;;;;;;;1.47;0.77;;;;;;;7.73;100.00;94577.81;5110315;28;20063;-76
2022/04/07 05:29:13;;;;;;;0.73;0.60;;;;;;;7.71;100.00;94580.63;5106180;28;20031;-76
2022/04/07 05:31:39;;;;;;;0.70;0.50;;;;;;;7.74;100.00;94582.06;5095645;28;20473;-76
2022/04/07 05:34:05;;;;;;;1.27;0.40;;;;;;;7.84;100.00;94584.38;5108566;28;20059;-76
2022/04/07 05:36:31;;;;;;;1.17;0.50;;;;;;;7.77;100.00;94574.66;5107806;28;20053;-76
2022/04/07 05:38:57;;;;;;;1.83;0.40;;;;;;;7.75;100.00;94562.75;5118270;27;20391;-75
2022/04/07 05:41:23;;;;;;;0.30;0.30;;;;;;;7.87;100.00;94565.69;5104271;28;20461;-76
2022/04/07 05:43:49;;;;;;;1.73;0.60;;;;;;;7.85;100.00;94552.00;5098816;28;20039;-76
2022/04/07 05:46:15;;;;;;;2.03;0.53;;;;;;;7.87;100.00;94553.44;5111224;28;20036;-75
2022/04/07 05:48:40;;;;;;;0.53;0.40;;;;;;;7.86;100.00;94553.63;5103917;28;20038;-77
2022/04/07 05:51:06;;;;;;;0.90;0.50;;;;;;;7.90;100.00;94549.63;5107461;28;20035;-76
2022/04/07 05:53:32;;;;;;;1.67;0.57;;;;;;;7.98;100.00;94542.50;5108923;28;20023;-76
2022/04/07 05:55:58;;;;;;;2.27;0.40;;;;;;;7.98;100.00;94547.72;5112343;27;20031;-76
2022/04/07 05:58:24;;;;;;;0.80;0.40;;;;;;;7.94;100.00;94535.19;5116872;27;20654;-76
2022/04/07 06:00:51;;;;;;;1.20;0.20;;;;;;;7.97;100.00;94547.91;5113295;27;20030;-76
2022/04/07 06:03:17;;;;;;;1.63;0.40;;;;;;;7.99;100.00;94538.88;5111177;27;20481;-76
2022/04/07 06:05:43;;;;;;;1.37;0.40;;;;;;;8.00;100.00;94544.91;5107319;27;20032;-77
2022/04/07 06:08:08;;;;;;;2.63;1.70;;;;;;;8.03;100.00;94542.75;5104402;27;20023;-76
2022/04/07 06:10:34;;;;;;;5.70;1.43;;;;;;;8.02;100.00;94537.69;5105018;27;20400;-77
2022/04/07 06:13:00;;;;;;;1.70;0.60;;;;;;;8.07;100.00;94530.09;5107366;27;20028;-77
2022/04/07 06:15:26;;;;;;;2.33;0.50;;;;;;;8.12;100.00;94534.78;5108784;27;20062;-76
2022/04/07 06:17:54;;;;;;;0.77;0.53;;;;;;;8.22;100.00;94538.72;5110615;27;20030;-76
2022/04/07 06:20:21;;;;;;;1.20;0.33;;;;;;;8.35;100.00;94542.44;5108973;27;20031;-77
2022/04/07 06:22:47;;;;;;;1.53;0.67;;;;;;;8.39;100.00;94530.66;5102051;27;20403;-77
2022/04/07 06:25:13;;;;;;;1.80;0.30;;;;;;;8.42;100.00;94527.66;5106433;27;20032;-76
2022/04/07 06:27:41;;;;;;;0.63;0.20;;;;;;;8.49;100.00;94513.63;5106978;27;20479;-76
2022/04/07 06:30:18;;;;;;;0.77;0.30;;;;;;;8.54;100.00;94513.03;5119024;27;20046;-76
2022/04/07 06:32:44;;;;;;;1.07;0.47;;;;;;;9.02;100.00;94501.91;5108367;27;20230;-78
2022/04/07 06:35:12;;;;;;;0.67;0.40;;;;;;;9.17;100.00;94486.88;5109042;27;20039;-76
2022/04/07 06:37:54;;;;;;;1.63;0.60;;;;;;;9.11;100.00;94482.41;5111755;27;20035;-76
2022/04/07 06:40:21;;;;;;;0.40;0.30;;;;;;;9.33;100.00;94476.06;5096725;27;20095;-77
2022/04/07 06:42:48;;;;;;;2.23;0.47;;;;;;;9.96;100.00;94473.28;5114681;27;20046;-76
2022/04/07 06:45:14;;;;;;;0.37;0.30;;;;;;;10.08;99.49;94466.41;5104726;27;20527;-76
2022/04/07 06:47:40;;;;;;;1.40;0.63;;;;;;;9.74;100.00;94466.53;5117580;27;20123;-76
2022/04/07 06:50:09;;;;;;;0.80;0.40;;;;;;;10.18;96.41;94433.69;5113161;27;20070;-76
2022/04/07 06:52:34;;;;;;;0.73;0.47;;;;;;;10.46;92.88;94421.22;5112117;27;20036;-76
2022/04/07 06:55:00;;;;;;;2.30;0.80;;;;;;;10.54;90.62;94413.13;5106517;27;20042;-76
2022/04/07 06:57:26;;;;;;;2.17;0.70;;;;;;;10.23;95.69;94415.50;5089774;28;20540;-76
2022/04/07 06:59:53;;;;;;;4.93;1.97;;;;;;;9.90;96.54;94411.03;5109704;27;20028;-75
2022/04/07 07:02:20;;;;;;;0.90;0.50;;;;;;;9.68;100.00;94413.00;5108991;27;20110;-76
2022/04/07 07:04:45;;;;;;;0.20;0.20;;;;;;;9.53;100.00;94418.44;5105865;27;20051;-76
2022/04/07 07:07:11;;;;;;;0.90;0.33;;;;;;;9.59;100.00;94422.88;5103578;27;20055;-76
2022/04/07 07:09:38;;;;;;;1.70;0.33;;;;;;;9.61;100.00;94414.81;5090727;28;20462;-76
2022/04/07 07:12:04;;;;;;;1.63;0.40;;;;;;;9.47;98.91;94419.22;5114229;27;20033;-76
2022/04/07 07:14:30;;;;;;;1.50;0.30;;;;;;;9.50;98.78;94424.06;5111739;27;20442;-76
2022/04/07 07:16:56;;;;;;;1.80;0.50;;;;;;;9.48;100.00;94418.19;5111209;27;20120;-76
2022/04/07 07:19:26;;;;;;;0.60;0.20;;;;;;;9.59;100.00;94408.94;5109065;27;20122;-77
2022/04/07 07:21:53;;;;;;;2.53;0.53;;;;;;;9.59;100.00;94404.53;5101603;27;20109;-76
2022/04/07 07:24:19;;;;;;;1.40;0.30;;;;;;;9.51;100.00;94407.31;5109434;27;20065;-76
2022/04/07 07:26:45;;;;;;;2.77;0.80;;;;;;;9.44;100.00;94414.34;5108671;27;20019;-76
2022/04/07 07:29:11;;;;;;;2.70;1.00;;;;;;;9.41;100.00;94407.69;5110210;27;20083;-76
2022/04/07 07:31:37;;;;;;;1.23;0.40;;;;;;;9.43;100.00;94403.06;5095691;28;20039;-76
2022/04/07 07:34:06;;;;;;;1.47;0.50;;;;;;;9.45;100.00;94397.59;5109341;27;20028;-75
2022/04/07 07:36:31;;;;;;;4.47;1.33;;;;;;;9.53;100.00;94394.00;5108246;27;20030;-76
2022/04/07 07:38:58;;;;;;;1.77;0.67;;;;;;;9.84;100.00;94380.34;5103562;27;20034;-76
2022/04/07 07:41:23;;;;;;;2.57;0.73;;;;;;;9.97;100.00;94382.16;5111559;27;20023;-76
2022/04/07 07:43:50;;;;;;;1.43;0.60;;;;;;;9.81;100.00;94375.47;5114257;27;20121;-75
2022/04/07 07:46:16;;;;;;;2.80;0.83;;;;;;;9.84;97.99;94370.63;5104620;27;20035;-76
2022/04/07 07:48:42;;;;;;;1.93;0.73;;;;;;;10.57;92.18;94362.78;5105265;27;20747;-75
2022/04/07 07:51:09;;;;;;;2.47;1.03;;;;;;;10.87;90.88;94364.94;5105475;28;20106;-76
2022/04/07 07:53:34;;;;;;;4.40;0.60;;;;;;;11.15;87.42;94364.63;5103084;27;20039;-76
2022/04/07 07:56:01;;;;;;;1.17;0.50;;;;;;;10.98;88.19;94356.41;5090786;28;20430;-76
2022/04/07 07:58:27;;;;;;;1.73;0.70;;;;;;;10.95;88.78;94354.19;5098062;27;20036;-77
2022/04/07 08:00:53;;;;;;;3.23;1.13;;;;;;;11.27;89.53;94351.66;5113166;27;20132;-76
2022/04/07 08:03:19;;;;;;;2.47;0.80;;;;;;;11.17;87.48;94344.19;5121600;27;20038;-77
2022/04/07 08:05:45;;;;;;;1.57;0.70;;;;;;;11.23;86.56;94350.44;5111504;27;20428;-76
2022/04/07 08:08:11;;;;;;;2.10;0.60;;;;;;;11.05;85.18;94345.84;5105336;27;20397;-76
2022/04/07 08:10:37;;;;;;;2.40;0.90;;;;;;;11.31;85.87;94344.94;5111508;27;20070;-76
2022/04/07 08:13:03;;;;;;;2.23;0.87;;;;;;;11.21;87.90;94353.28;5097757;28;20070;-76
2022/04/07 08:15:31;;;;;;;1.00;0.50;;;;;;;11.28;86.94;94355.88;5114023;27;20027;-76
2022/04/07 08:17:57;;;;;;;0.93;0.40;;;;;;;11.05;89.61;94345.84;5096981;28;20027;-76
2022/04/07 08:20:23;;;;;;;0.77;0.40;;;;;;;10.94;89.65;94352.56;5116674;27;20893;-76
2022/04/07 08:22:49;;;;;;;0.60;0.30;;;;;;;10.91;91.26;94355.63;5109415;27;20507;-76
2022/04/07 08:25:15;;;;;;;1.50;0.53;;;;;;;11.09;94.70;94347.84;5113861;27;20520;-76
2022/04/07 08:27:41;;;;;;;0.97;0.40;;;;;;;11.11;89.24;94349.47;5097540;28;20123;-77
2022/04/07 08:30:08;;;;;;;0.30;0.30;;;;;;;11.19;87.97;94362.38;5115426;27;20106;-76
2022/04/07 08:32:35;;;;;;;0.93;0.40;;;;;;;10.87;87.60;94358.88;5106611;27;20084;-76
2022/04/07 08:35:01;;;;;;;1.23;0.53;;;;;;;10.64;88.60;94360.13;5103188;27;20035;-78
2022/04/07 08:37:27;;;;;;;1.63;0.60;;;;;;;10.56;88.69;94345.41;5108904;27;20023;-76
2022/04/07 08:39:53;;;;;;;1.33;0.50;;;;;;;10.52;88.17;94322.34;5108058;27;20054;-76
2022/04/07 08:42:21;;;;;;;0.70;0.40;;;;;;;10.62;89.27;94314.84;5103648;28;20035;-76
2022/04/07 08:44:48;;;;;;;0.40;0.20;;;;;;;10.57;88.89;94312.84;5107581;28;20110;-76
2022/04/07 08:47:18;;;;;;;1.40;0.30;;;;;;;10.72;90.67;94312.59;5102562;28;20517;-76
2022/04/07 08:49:44;;;;;;;1.30;0.27;;;;;;;10.89;88.50;94298.97;5114923;27;20141;-76
2022/04/07 08:52:11;;;;;;;1.03;0.30;;;;;;;10.99;87.31;94300.13;5088599;28;20595;-76
2022/04/07 08:54:37;;;;;;;0.53;0.20;;;;;;;10.99;87.90;94297.50;5109355;27;20106;-76
2022/04/07 08:57:03;;;;;;;2.10;0.40;;;;;;;11.01;87.32;94300.75;5104860;27;20031;-76
2022/04/07 08:59:30;;;;;;;1.90;0.40;;;;;;;11.13;85.44;94290.38;5098243;27;20096;-76
2022/04/07 09:02:03;;;;;;;0.63;0.27;;;;;;;11.16;85.92;94289.94;5115861;27;20047;-76
2022/04/07 09:04:30;;;;;;;1.27;0.52;;;;;;;11.02;85.16;94273.41;5106882;28;20741;-78
2022/04/07 09:06:58;;;;;;;0.93;0.30;;;;;;;11.02;86.20;94276.06;5107281;27;20557;-77
2022/04/07 09:09:23;;;;;;;0.80;0.30;;;;;;;10.99;84.83;94275.66;5109295;27;20496;-77
2022/04/07 09:11:54;;;;;;;0.50;0.17;;;;;;;11.09;83.97;94268.13;5107232;27;20031;-77
2022/04/07 09:14:20;;;;;;;1.87;0.40;;;;;;;11.12;83.54;94262.44;5108726;27;20043;-77
2022/04/07 09:16:46;;;;;;;1.50;0.30;;;;;;;11.11;84.78;94266.09;5100509;28;20032;-77
2022/04/07 09:19:13;;;;;;;0.30;0.20;;;;;;;11.22;89.58;94270.69;5109828;27;20110;-77
2022/04/07 09:21:38;;;;;;;0.67;0.23;;;;;;;11.40;86.11;94258.63;5120462;27;20035;-77
2022/04/07 09:24:07;;;;;;;0.43;0.40;;;;;;;11.47;86.44;94254.97;5100977;27;20028;-77
2022/04/07 09:26:41;;;;;;;0.57;0.30;;;;;;;11.48;84.28;94237.34;5103776;28;20578;-77
2022/04/07 09:29:11;;;;;;;1.37;0.40;;;;;;;11.63;82.61;94240.44;5108933;27;20033;-77
2022/04/07 09:31:53;;;;;;;0.33;0.10;;;;;;;11.75;79.71;94238.75;5119540;27;20062;-78
2022/04/07 09:34:32;;;;;;;0.23;0.23;;;;;;;11.78;81.22;94235.69;5093079;27;20051;-76
2022/04/07 09:37:06;;;;;;;0.57;0.47;;;;;;;11.87;80.01;94225.72;5087483;28;20590;-76
2022/04/07 09:39:34;;;;;;;1.30;0.57;;;;;;;11.71;80.63;94220.97;5107903;27;20481;-77
2022/04/07 09:42:26;;;;;;;1.60;0.47;;;;;;;11.46;84.35;94210.41;5118902;27;20020;-76
2022/04/07 09:44:59;;;;;;;1.10;0.40;;;;;;;11.30;94.58;94196.78;5114595;27;21400;-76
2022/04/07 09:47:49;;;;;;;2.50;0.25;;;;;;;11.50;100.00;94215.06;5113439;27;20024;-76
2022/04/07 09:50:23;;;;;;;0.83;0.30;;;;;;;11.68;99.04;94211.66;5104129;27;20106;-76
2022/04/07 09:53:00;;;;;;;2.10;0.30;;;;;;;11.55;91.17;94193.34;5111319;27;20050;-76
2022/04/07 09:55:34;;;;;;;0.27;0.17;;;;;;;11.64;89.89;94186.78;5120404;27;20104;-76
2022/04/07 09:58:02;;;;;;;0.93;0.23;;;;;;;11.31;94.84;94189.69;5125355;27;20388;-76
2022/04/07 10:00:28;;;;;;;1.03;0.30;;;;;;;10.91;100.00;94192.56;5114677;27;20027;-77
2022/04/07 10:02:56;;;;;;;0.40;0.20;;;;;;;10.81;100.00;94198.28;5111312;27;20064;-77
2022/04/07 10:05:24;;;;;;;0.57;0.27;;;;;;;10.62;100.00;94204.44;5114291;27;20038;-76
2022/04/07 10:07:50;;;;;;;2.90;0.40;;;;;;;10.60;100.00;94206.50;5112932;27;20036;-76
2022/04/07 10:10:18;;;;;;;1.87;0.30;;;;;;;10.56;100.00;94200.84;5102280;27;20065;-76
2022/04/07 10:12:47;;;;;;;2.83;0.40;;;;;;;10.48;100.00;94193.19;5114221;27;20042;-76
2022/04/07 10:15:15;;;;;;;1.53;0.50;;;;;;;10.34;100.00;94202.13;5121476;27;20496;-76
2022/04/07 10:17:41;;;;;;;0.83;0.10;;;;;;;10.21;100.00;94202.94;5107933;27;20027;-77
2022/04/07 10:20:11;;;;;;;1.47;0.50;;;;;;;10.16;100.00;94189.63;5113286;27;20042;-76
2022/04/07 10:23:01;;;;;;;1.03;0.20;;;;;;;10.04;100.00;94191.28;5110784;27;20556;-76
2022/04/07 10:25:30;;;;;;;1.60;0.23;;;;;;;10.07;100.00;94175.91;5118870;27;20589;-77
2022/04/07 10:27:59;;;;;;;0.43;0.27;;;;;;;10.17;100.00;94164.19;5111428;27;20139;-77
2022/04/07 10:30:29;;;;;;;1.20;0.50;;;;;;;10.31;100.00;94176.28;5114108;27;20038;-77
2022/04/07 10:32:58;;;;;;;1.17;0.40;;;;;;;10.36;100.00;94160.69;5101327;27;20036;-76
2022/04/07 10:35:27;;;;;;;0.93;0.30;;;;;;;10.48;100.00;94148.50;5121613;27;20113;-76
2022/04/07 10:37:52;;;;;;;1.20;0.30;;;;;;;10.54;100.00;94128.47;5115860;27;20027;-76
2022/04/07 10:40:37;;;;;;;0.50;0.20;;;;;;;10.69;100.00;94130.81;5119340;27;20374;-77
2022/04/07 10:43:14;;;;;;;1.80;0.60;;;;;;;10.95;100.00;94121.94;5115811;27;20617;-76
2022/04/07 10:45:41;;;;;;;0.73;0.37;;;;;;;10.98;100.00;94113.63;5112286;27;20035;-77
2022/04/07 10:48:16;;;;;;;0.80;0.30;;;;;;;11.01;100.00;94105.31;5106802;27;20426;-75
2022/04/07 10:50:49;;;;;;;1.23;0.30;;;;;;;11.07;98.27;94094.75;5107930;27;20110;-76
2022/04/07 10:53:31;;;;;;;1.15;0.30;;;;;;;11.14;98.47;94075.47;5097678;27;20062;-75
2022/04/07 10:56:13;;;;;;;0.67;0.30;;;;;;;11.14;99.08;94096.53;5100591;27;20027;-76
2022/04/07 10:58:46;;;;;;;2.67;0.30;;;;;;;11.31;98.52;94087.06;5088013;27;20652;-76
2022/04/07 11:01:32;;;;;;;1.02;0.57;;;;;;;11.43;97.71;94087.94;5109575;27;20411;-76
2022/04/07 11:04:25;;;;;;;0.60;0.40;;;;;;;11.29;96.76;94094.34;5108030;27;20128;-76
2022/04/07 11:07:24;;;;;;;2.60;0.40;;;;;;;11.23;96.59;94085.53;5118184;27;20043;-76
2022/04/07 11:09:53;;;;;;;0.40;0.30;;;;;;;11.29;95.94;94070.69;5105672;27;20082;-75
2022/04/07 11:12:25;;;;;;;0.60;0.40;;;;;;;11.26;92.25;94079.81;5102667;27;20506;-75
2022/04/07 11:14:55;;;;;;;1.37;0.60;;;;;;;11.32;92.32;94064.97;5109781;27;20445;-76
2022/04/07 11:17:43;;;;;;;1.70;0.70;;;;;;;11.39;90.10;94062.28;5112980;27;20114;-75
2022/04/07 11:20:09;;;;;;;2.13;0.20;;;;;;;11.41;89.77;94060.25;5108748;27;20106;-75
2022/04/07 11:22:58;;;;;;;0.70;0.30;;;;;;;11.51;90.07;94050.84;5093407;28;20177;-75
2022/04/07 11:25:39;;;;;;;0.60;0.23;;;;;;;11.63;90.18;94058.78;5104881;27;20736;-75
2022/04/07 11:28:15;;;;;;;0.30;0.27;;;;;;;11.74;91.68;94055.44;5098655;27;20141;-75
2022/04/07 11:30:54;;;;;;;1.27;0.67;;;;;;;11.63;90.14;94048.25;5090929;27;20036;-75
2022/04/07 11:33:20;;;;;;;2.87;0.67;;;;;;;11.65;88.09;94042.78;5116480;27;20965;-75
2022/04/07 11:36:01;;;;;;;0.27;0.20;;;;;;;11.71;86.57;94050.63;5122395;27;20071;-75